Time;durP1;ratioP1;P1;durP2;ratioP2;P2;SDS_P1;SDS_P2;PMS_P1;PMS_P2;Temp;Humidity;BMP_temperature;BMP_pressure;BME280_temperature;BME280_humidity;BME280_pressure;Samples;Min_cycle;Max_cycle;Signal;HPM_P1;HPM_P2
2022/09/10 00:00:59;;;;;;;2.13;1.13;;;;;;;17.76;100.00;100362.09;5030419;28;20052;-65
2022/09/10 00:03:25;;;;;;;1.25;1.15;;;;;;;17.79;100.00;100358.56;5025560;28;20477;-65
2022/09/10 00:05:51;;;;;;;4.85;1.90;;;;;;;17.84;100.00;100355.38;5030081;28;20126;-65
2022/09/10 00:08:18;;;;;;;3.65;1.40;;;;;;;18.02;100.00;100366.03;5030343;28;20065;-65
2022/09/10 00:10:46;;;;;;;3.60;1.80;;;;;;;17.95;100.00;100364.16;5024769;28;20422;-65
2022/09/10 00:13:14;;;;;;;2.33;1.40;;;;;;;17.90;100.00;100367.34;5028903;28;20099;-65
2022/09/10 00:15:52;;;;;;;2.15;1.20;;;;;;;17.94;100.00;100372.75;5022823;28;20026;-65
2022/09/10 00:18:21;;;;;;;2.28;1.30;;;;;;;17.80;100.00;100371.00;5031014;28;20086;-65
2022/09/10 00:20:52;;;;;;;1.27;1.15;;;;;;;17.85;100.00;100373.25;5023739;28;20041;-65
2022/09/10 00:23:20;;;;;;;1.27;1.17;;;;;;;17.84;100.00;100360.84;5026974;28;20116;-65
2022/09/10 00:25:46;;;;;;;0.95;0.93;;;;;;;17.87;100.00;100364.66;5029811;28;20064;-65
2022/09/10 00:28:11;;;;;;;4.53;1.20;;;;;;;17.92;100.00;100361.50;5030177;28;20037;-65
2022/09/10 00:30:42;;;;;;;1.48;1.10;;;;;;;17.89;100.00;100360.38;5023327;28;20045;-65
2022/09/10 00:33:07;;;;;;;1.65;1.10;;;;;;;17.98;99.35;100362.59;5025021;28;20063;-66
2022/09/10 00:35:34;;;;;;;1.48;1.10;;;;;;;17.91;99.48;100360.72;5025326;28;20048;-65
2022/09/10 00:38:00;;;;;;;1.30;1.20;;;;;;;17.87;100.00;100362.72;5028569;28;20421;-65
2022/09/10 00:40:26;;;;;;;1.38;1.25;;;;;;;17.96;99.61;100357.53;5026694;28;20425;-65
2022/09/10 00:42:51;;;;;;;2.10;1.10;;;;;;;17.91;100.00;100368.91;5012390;28;20033;-66
2022/09/10 00:45:23;;;;;;;2.17;1.15;;;;;;;17.83;100.00;100370.19;5029202;28;20124;-65
2022/09/10 00:47:53;;;;;;;2.05;1.00;;;;;;;17.82;100.00;100365.16;5029294;28;20029;-65
2022/09/10 00:50:28;;;;;;;1.15;1.05;;;;;;;17.73;100.00;100362.91;5029051;28;20029;-66
2022/09/10 00:52:58;;;;;;;1.83;1.23;;;;;;;17.68;100.00;100377.00;5033522;28;20489;-65
2022/09/10 00:55:23;;;;;;;1.35;1.15;;;;;;;17.64;100.00;100370.03;5027629;28;20033;-65
2022/09/10 00:57:53;;;;;;;1.60;1.20;;;;;;;17.66;100.00;100379.38;5027830;28;20032;-65
2022/09/10 01:00:19;;;;;;;1.42;1.20;;;;;;;17.68;100.00;100377.00;5022050;28;20041;-65
2022/09/10 01:02:46;;;;;;;2.92;1.40;;;;;;;17.65;100.00;100375.09;5029972;28;20033;-65
2022/09/10 01:05:13;;;;;;;1.20;1.10;;;;;;;17.65;100.00;100371.59;5024559;28;20045;-65
2022/09/10 01:07:39;;;;;;;1.77;1.00;;;;;;;17.63;100.00;100366.56;5033946;28;20079;-65
2022/09/10 01:10:49;;;;;;;3.00;1.30;;;;;;;17.63;100.00;100379.41;5030504;28;20029;-65
2022/09/10 01:13:57;;;;;;;1.35;1.10;;;;;;;17.64;100.00;100373.56;5025551;28;20576;-65
2022/09/10 01:16:43;;;;;;;1.30;1.00;;;;;;;17.62;100.00;100372.41;5033277;28;20111;-65
2022/09/10 01:19:27;;;;;;;1.50;1.20;;;;;;;17.66;100.00;100379.38;5029075;28;20034;-65
2022/09/10 01:22:14;;;;;;;1.88;1.05;;;;;;;17.77;100.00;100382.72;5029600;28;20029;-65
2022/09/10 01:24:46;;;;;;;1.20;1.10;;;;;;;17.76;100.00;100378.47;5010607;28;20029;-65
2022/09/10 01:27:25;;;;;;;1.70;1.40;;;;;;;17.79;100.00;100379.56;5026864;28;20136;-65
2022/09/10 01:30:03;;;;;;;1.20;0.85;;;;;;;17.76;100.00;100383.13;5024431;28;20026;-65
2022/09/10 01:32:44;;;;;;;1.35;1.10;;;;;;;17.74;100.00;100385.50;5030875;28;20083;-65
2022/09/10 01:35:16;;;;;;;1.50;1.30;;;;;;;17.79;100.00;100387.75;5028863;28;20040;-65
2022/09/10 01:37:55;;;;;;;1.83;1.20;;;;;;;17.77;100.00;100379.97;5011247;28;20029;-66
2022/09/10 01:40:28;;;;;;;1.25;1.00;;;;;;;17.74;100.00;100386.25;5031370;28;20044;-66
2022/09/10 01:43:04;;;;;;;1.30;1.20;;;;;;;17.70;100.00;100384.75;5015626;28;20128;-65
2022/09/10 01:45:43;;;;;;;3.85;1.38;;;;;;;17.67;100.00;100388.31;5044832;28;20034;-65
2022/09/10 01:48:52;;;;;;;1.08;0.98;;;;;;;17.69;100.00;100383.97;5030603;28;20049;-65
2022/09/10 01:51:26;;;;;;;2.22;1.00;;;;;;;17.68;100.00;100387.91;5024897;28;20037;-65
2022/09/10 01:54:15;;;;;;;2.25;1.08;;;;;;;17.71;100.00;100386.31;5030403;28;20079;-65
2022/09/10 01:56:50;;;;;;;2.08;1.33;;;;;;;17.73;100.00;100384.72;5030637;28;20091;-65
2022/09/10 01:59:28;;;;;;;1.65;1.20;;;;;;;17.69;100.00;100389.44;5031945;28;20052;-65
2022/09/10 02:02:07;;;;;;;1.75;1.20;;;;;;;17.75;100.00;100385.06;5025431;28;20092;-65
2022/09/10 02:04:34;;;;;;;1.40;0.93;;;;;;;17.80;100.00;100386.56;5030950;28;20026;-65
2022/09/10 02:07:04;;;;;;;1.60;1.30;;;;;;;17.81;100.00;100383.44;5029065;28;20044;-65
2022/09/10 02:09:30;;;;;;;1.42;1.13;;;;;;;17.75;100.00;100387.78;5026295;28;20493;-65
2022/09/10 02:11:55;;;;;;;1.42;1.27;;;;;;;17.74;100.00;100385.50;5013966;28;20040;-65
2022/09/10 02:14:55;;;;;;;2.90;1.40;;;;;;;17.72;100.00;100383.19;5014290;28;20410;-68
2022/09/10 02:17:32;;;;;;;1.30;1.20;;;;;;;17.67;100.00;100389.06;5047485;28;20513;-67
2022/09/10 02:20:03;;;;;;;2.78;1.20;;;;;;;17.82;100.00;100381.50;5014751;28;20052;-67
2022/09/10 02:22:32;;;;;;;1.90;1.48;;;;;;;17.85;100.00;100395.06;5008554;28;20038;-67
2022/09/10 02:24:58;;;;;;;2.03;1.30;;;;;;;17.79;100.00;100382.28;5028262;28;20121;-67
2022/09/10 02:27:24;;;;;;;2.30;1.25;;;;;;;17.74;100.00;100386.25;5011564;28;20458;-67
2022/09/10 02:29:50;;;;;;;4.85;1.30;;;;;;;17.83;100.00;100394.69;5031133;28;20025;-67
2022/09/10 02:32:16;;;;;;;1.42;1.30;;;;;;;17.76;100.00;100388.56;5023626;28;20064;-67
2022/09/10 02:34:41;;;;;;;1.75;1.20;;;;;;;17.69;100.00;100383.22;5025668;28;20029;-67
2022/09/10 02:37:07;;;;;;;1.65;1.20;;;;;;;17.67;100.00;100391.78;5030228;28;20095;-67
2022/09/10 02:39:35;;;;;;;2.10;1.30;;;;;;;17.64;100.00;100383.66;5030615;28;20035;-67
2022/09/10 02:42:01;;;;;;;5.10;1.15;;;;;;;17.54;100.00;100387.28;5029986;28;20037;-67
2022/09/10 02:44:27;;;;;;;4.47;1.15;;;;;;;17.58;100.00;100386.06;5024917;28;20156;-67
2022/09/10 02:46:53;;;;;;;1.20;1.10;;;;;;;17.73;100.00;100389.41;5024596;28;20398;-67
2022/09/10 02:49:19;;;;;;;1.10;1.00;;;;;;;17.69;100.00;100397.59;5028783;28;20120;-66
2022/09/10 02:51:49;;;;;;;1.95;1.10;;;;;;;17.67;100.00;100385.59;5024905;28;20033;-66
2022/09/10 02:54:15;;;;;;;1.92;1.30;;;;;;;17.63;100.00;100396.53;5046444;28;20034;-66
2022/09/10 02:56:42;;;;;;;1.63;1.08;;;;;;;17.63;100.00;100391.09;5030395;28;20120;-66
2022/09/10 02:59:08;;;;;;;2.72;1.10;;;;;;;17.64;100.00;100395.34;5031861;28;20037;-67
2022/09/10 03:01:35;;;;;;;1.55;1.13;;;;;;;17.67;100.00;100389.06;5010936;28;20033;-66
2022/09/10 03:04:03;;;;;;;1.95;1.30;;;;;;;17.54;100.00;100382.63;5031248;28;20758;-66
2022/09/10 03:06:30;;;;;;;1.73;1.08;;;;;;;17.52;100.00;100382.25;5026213;28;20026;-66
2022/09/10 03:08:56;;;;;;;1.20;1.10;;;;;;;17.50;100.00;100392.78;5034176;28;20026;-66
2022/09/10 03:11:23;;;;;;;1.50;1.30;;;;;;;17.42;100.00;100377.69;5031351;28;20045;-66
2022/09/10 03:13:49;;;;;;;1.15;1.05;;;;;;;17.47;100.00;100381.91;5029056;28;20421;-66
2022/09/10 03:16:16;;;;;;;1.05;0.95;;;;;;;17.58;100.00;100383.34;5028047;28;20500;-66
2022/09/10 03:18:42;;;;;;;1.67;1.20;;;;;;;17.60;100.00;100389.16;5025654;28;20128;-66
2022/09/10 03:21:12;;;;;;;2.70;1.60;;;;;;;17.54;100.00;100382.63;5063932;22;20045;-68
2022/09/10 03:23:39;;;;;;;1.83;1.05;;;;;;;17.47;100.00;100385.41;5037836;28;20033;-72
2022/09/10 03:26:05;;;;;;;1.80;1.52;;;;;;;17.46;100.00;100386.59;5047437;28;20032;-70
2022/09/10 03:28:32;;;;;;;1.80;1.20;;;;;;;17.47;100.00;100379.19;5029350;28;20055;-70
2022/09/10 03:31:00;;;;;;;1.73;1.17;;;;;;;17.50;100.00;100384.63;5038625;28;20047;-71
2022/09/10 03:33:27;;;;;;;1.40;0.93;;;;;;;17.46;100.00;100386.59;5011846;28;20576;-71
2022/09/10 03:35:53;;;;;;;1.38;1.27;;;;;;;17.44;100.00;100388.94;5052561;28;20116;-71
2022/09/10 03:38:19;;;;;;;1.50;1.17;;;;;;;17.45;100.00;100387.00;5038599;28;20117;-71
2022/09/10 03:40:45;;;;;;;2.30;1.33;;;;;;;17.40;100.00;100387.47;5032787;28;20060;-71
2022/09/10 03:43:11;;;;;;;1.55;1.20;;;;;;;17.39;100.00;100383.94;5014059;28;20067;-70
2022/09/10 03:45:38;;;;;;;2.63;1.20;;;;;;;17.47;100.00;100392.81;5042799;28;20024;-71
2022/09/10 03:48:04;;;;;;;1.63;1.13;;;;;;;17.55;100.00;100391.56;5050689;28;20060;-71
2022/09/10 03:50:30;;;;;;;3.03;1.67;;;;;;;17.53;100.00;100400.16;5032954;28;20025;-71
2022/09/10 03:52:55;;;;;;;1.50;1.38;;;;;;;17.44;100.00;100388.19;5040488;28;20041;-70
2022/09/10 03:55:22;;;;;;;3.72;1.20;;;;;;;17.38;100.00;100395.25;5036954;28;20087;-71
2022/09/10 03:57:47;;;;;;;2.40;1.25;;;;;;;17.35;100.00;100390.59;5032249;28;20033;-71
2022/09/10 04:00:14;;;;;;;1.85;1.20;;;;;;;17.35;100.00;100396.84;5032473;28;20029;-69
2022/09/10 04:02:45;;;;;;;1.42;1.33;;;;;;;17.33;100.00;100382.84;5036755;28;20056;-71
2022/09/10 04:05:12;;;;;;;2.53;1.67;;;;;;;17.31;100.00;100390.66;5037609;28;20041;-71
2022/09/10 04:07:37;;;;;;;1.60;1.33;;;;;;;17.35;100.00;100385.94;5029338;28;20043;-71
2022/09/10 04:10:03;;;;;;;1.35;1.23;;;;;;;17.36;100.00;100384.00;5049440;28;20037;-71
2022/09/10 04:12:29;;;;;;;1.70;1.20;;;;;;;17.32;100.00;100392.22;5036858;28;20078;-71
2022/09/10 04:14:54;;;;;;;1.35;1.20;;;;;;;17.30;100.00;100391.06;5032901;28;20119;-70
2022/09/10 04:17:20;;;;;;;2.20;1.30;;;;;;;17.22;100.00;100395.03;5032064;28;20021;-71
2022/09/10 04:19:45;;;;;;;4.00;1.10;;;;;;;17.27;100.00;100389.91;5049551;28;20036;-71
2022/09/10 04:22:11;;;;;;;2.42;1.30;;;;;;;17.21;100.00;100390.78;5042359;28;20552;-71
2022/09/10 04:24:38;;;;;;;2.78;1.52;;;;;;;17.20;100.00;100400.91;5015472;28;20040;-71
2022/09/10 04:27:05;;;;;;;1.40;1.30;;;;;;;17.20;100.00;100400.91;5030973;28;20501;-71
2022/09/10 04:29:31;;;;;;;2.33;1.42;;;;;;;17.27;100.00;100398.09;5032325;28;20025;-71
2022/09/10 04:31:57;;;;;;;3.38;1.77;;;;;;;17.25;100.00;100403.16;5031565;28;20496;-71
2022/09/10 04:34:25;;;;;;;1.30;1.17;;;;;;;17.25;100.00;100399.69;5015116;28;20029;-71
2022/09/10 04:36:52;;;;;;;3.47;1.20;;;;;;;17.35;100.00;100394.09;5027367;28;20029;-71
2022/09/10 04:39:18;;;;;;;1.17;1.08;;;;;;;17.37;100.00;100405.38;5010365;28;20394;-71
2022/09/10 04:41:45;;;;;;;2.45;1.42;;;;;;;17.43;100.00;100411.13;5029022;28;20033;-71
2022/09/10 04:44:12;;;;;;;2.22;1.60;;;;;;;17.41;100.00;100402.59;5040466;28;20642;-71
2022/09/10 04:46:41;;;;;;;1.40;1.05;;;;;;;17.31;100.00;100404.25;5017585;28;20023;-71
2022/09/10 04:49:09;;;;;;;3.15;1.60;;;;;;;17.27;100.00;100408.97;5049095;28;20029;-71
2022/09/10 04:51:35;;;;;;;4.32;1.63;;;;;;;17.27;100.00;100410.91;5031849;28;20400;-71
2022/09/10 04:54:01;;;;;;;1.20;1.05;;;;;;;17.24;100.00;100423.41;5033841;28;20028;-71
2022/09/10 04:56:33;;;;;;;2.45;1.52;;;;;;;17.20;100.00;100414.50;5032018;28;20056;-71
2022/09/10 04:58:59;;;;;;;2.85;1.55;;;;;;;17.20;100.00;100421.88;5048551;28;20121;-71
2022/09/10 05:01:27;;;;;;;5.70;1.30;;;;;;;17.21;100.00;100418.00;5012707;28;20048;-71
2022/09/10 05:03:53;;;;;;;3.20;1.42;;;;;;;17.23;100.00;100421.84;5032647;28;20040;-71
2022/09/10 05:06:19;;;;;;;2.30;1.55;;;;;;;17.26;100.00;100410.16;5015823;28;20029;-71
2022/09/10 05:08:45;;;;;;;1.98;1.30;;;;;;;17.24;100.00;100422.63;5029542;28;20159;-71
2022/09/10 05:11:12;;;;;;;2.28;1.30;;;;;;;17.22;100.00;100424.97;5052848;28;20163;-71
2022/09/10 05:13:38;;;;;;;3.45;2.13;;;;;;;17.35;100.00;100412.38;5061640;28;20029;-71
2022/09/10 05:16:04;;;;;;;3.35;1.40;;;;;;;17.33;100.00;100420.19;5035391;28;20071;-71
2022/09/10 05:18:32;;;;;;;1.23;1.13;;;;;;;17.34;100.00;100414.34;5033671;28;20112;-71
2022/09/10 05:20:58;;;;;;;2.15;1.60;;;;;;;17.33;100.00;100410.06;5044077;28;20739;-71
2022/09/10 05:23:23;;;;;;;2.10;1.50;;;;;;;17.41;100.00;100421.66;5041094;28;20025;-71
2022/09/10 05:25:50;;;;;;;1.75;1.35;;;;;;;17.28;100.00;100424.16;5019047;28;20025;-71
2022/09/10 05:28:16;;;;;;;1.80;1.30;;;;;;;17.19;100.00;100418.38;5018362;28;20063;-71
2022/09/10 05:30:43;;;;;;;3.42;1.80;;;;;;;17.09;100.00;100422.00;5047010;28;20489;-71
2022/09/10 05:33:10;;;;;;;1.83;1.45;;;;;;;17.17;100.00;100423.47;5034417;28;20021;-71
2022/09/10 05:35:35;;;;;;;1.90;1.45;;;;;;;17.08;100.00;100423.97;5017323;28;20603;-71
2022/09/10 05:38:01;;;;;;;2.63;1.70;;;;;;;17.12;100.00;100421.97;5031885;28;20464;-71
2022/09/10 05:40:28;;;;;;;2.80;1.83;;;;;;;17.18;100.00;100422.31;5031635;28;20040;-71
2022/09/10 05:42:55;;;;;;;2.60;1.45;;;;;;;17.20;100.00;100425.38;5046620;28;20442;-71
2022/09/10 05:45:22;;;;;;;2.15;1.83;;;;;;;17.40;100.00;100425.56;5032479;28;20025;-71
2022/09/10 05:47:48;;;;;;;2.10;1.50;;;;;;;17.32;100.00;100433.03;5028251;28;20025;-71
2022/09/10 05:50:19;;;;;;;2.35;1.65;;;;;;;17.36;100.00;100431.06;5031967;28;20025;-71
2022/09/10 05:52:45;;;;;;;1.90;1.70;;;;;;;17.41;100.00;100427.09;5014752;28;20025;-71
2022/09/10 05:55:12;;;;;;;1.92;1.38;;;;;;;17.45;100.00;100433.28;5033948;28;20056;-71
2022/09/10 05:57:39;;;;;;;5.90;1.92;;;;;;;17.37;100.00;100440.75;5032538;28;20032;-71
2022/09/10 06:00:08;;;;;;;2.85;1.45;;;;;;;17.39;100.00;100443.84;5022048;28;20074;-71
2022/09/10 06:02:40;;;;;;;2.17;1.38;;;;;;;17.51;100.00;100437.91;5051983;28;20531;-71
2022/09/10 06:05:07;;;;;;;1.92;1.55;;;;;;;17.53;100.00;100432.84;5033679;28;20408;-71
2022/09/10 06:07:33;;;;;;;2.50;1.30;;;;;;;17.59;100.00;100438.59;5034188;28;20025;-71
2022/09/10 06:09:59;;;;;;;2.42;1.38;;;;;;;17.71;100.00;100438.06;5033487;28;20396;-71
2022/09/10 06:12:39;;;;;;;1.98;1.77;;;;;;;17.81;100.00;100453.50;5013116;28;20033;-71
2022/09/10 06:15:06;;;;;;;1.40;1.30;;;;;;;17.84;100.00;100447.25;5017852;28;20024;-71
2022/09/10 06:17:32;;;;;;;1.65;1.50;;;;;;;17.91;100.00;100453.38;5032520;28;20029;-71
2022/09/10 06:19:57;;;;;;;2.63;1.65;;;;;;;17.97;100.00;100456.41;5029512;28;20032;-71
2022/09/10 06:22:23;;;;;;;3.03;1.98;;;;;;;17.92;100.00;100456.88;5030345;28;20029;-71
2022/09/10 06:24:50;;;;;;;1.80;1.50;;;;;;;17.88;100.00;100456.16;5032849;28;20025;-70
2022/09/10 06:27:17;;;;;;;3.03;1.67;;;;;;;17.94;100.00;100458.00;5033390;28;20102;-70
2022/09/10 06:29:42;;;;;;;3.33;1.67;;;;;;;17.81;100.00;100453.50;5028439;28;20087;-70
2022/09/10 06:32:09;;;;;;;1.90;1.60;;;;;;;17.76;100.00;100445.78;5049783;28;20025;-70
2022/09/10 06:34:35;;;;;;;2.30;1.88;;;;;;;17.70;100.00;100450.13;5033068;28;20036;-70
2022/09/10 06:37:03;;;;;;;2.03;1.42;;;;;;;17.82;100.00;100464.00;5019589;28;20033;-70
2022/09/10 06:39:29;;;;;;;2.30;1.58;;;;;;;18.04;100.00;100459.81;5031136;28;20059;-70
2022/09/10 06:41:58;;;;;;;2.20;1.58;;;;;;;18.22;100.00;100464.25;5033858;28;20021;-70
2022/09/10 06:44:49;;;;;;;2.83;1.88;;;;;;;18.32;100.00;100463.31;5033421;28;20123;-70
2022/09/10 06:47:39;;;;;;;2.10;1.60;;;;;;;18.35;100.00;100468.72;5040849;28;20036;-70
2022/09/10 06:50:05;;;;;;;3.13;2.10;;;;;;;18.28;100.00;100468.06;5035579;28;20041;-70
2022/09/10 06:52:38;;;;;;;3.03;1.63;;;;;;;18.29;100.00;100470.38;5032578;28;20489;-70
2022/09/10 06:55:27;;;;;;;2.53;1.83;;;;;;;18.41;100.00;100469.03;5040647;28;20024;-70
2022/09/10 06:57:53;;;;;;;2.53;1.63;;;;;;;18.55;100.00;100463.41;4993327;28;20046;-70
2022/09/10 07:00:19;;;;;;;2.78;1.88;;;;;;;18.56;100.00;100473.16;5009704;28;20124;-70
2022/09/10 07:02:50;;;;;;;2.20;1.70;;;;;;;18.66;100.00;100477.66;4993038;28;20064;-70
2022/09/10 07:05:16;;;;;;;2.33;1.55;;;;;;;18.83;100.00;100473.88;5008621;28;20048;-69
2022/09/10 07:07:42;;;;;;;2.55;1.80;;;;;;;18.85;100.00;100479.69;5000653;28;20374;-70
2022/09/10 07:10:08;;;;;;;1.95;1.75;;;;;;;18.93;100.00;100472.91;5003733;28;20046;-70
2022/09/10 07:12:33;;;;;;;4.30;1.65;;;;;;;18.85;100.00;100474.25;4994133;28;20025;-70
2022/09/10 07:15:00;;;;;;;2.25;1.60;;;;;;;18.81;100.00;100479.00;5008026;28;20498;-70
2022/09/10 07:17:27;;;;;;;1.63;1.30;;;;;;;18.92;100.00;100474.13;4969799;28;20442;-70
2022/09/10 07:19:52;;;;;;;2.97;1.55;;;;;;;18.97;100.00;100472.88;5008335;28;20096;-70
2022/09/10 07:22:24;;;;;;;2.83;1.80;;;;;;;18.98;100.00;100477.91;5004015;28;20046;-70
2022/09/10 07:24:50;;;;;;;2.20;1.58;;;;;;;18.95;100.00;100467.81;5005353;28;20289;-70
2022/09/10 07:27:28;;;;;;;3.13;1.67;;;;;;;18.85;100.00;100477.72;4976862;28;20627;-70
2022/09/10 07:29:55;;;;;;;3.75;2.30;;;;;;;18.76;100.00;100484.91;4981357;28;20057;-70
2022/09/10 07:32:20;;;;;;;2.63;1.35;;;;;;;18.63;100.00;100486.66;4989790;28;20536;-70
2022/09/10 07:34:51;;;;;;;2.03;1.50;;;;;;;18.71;100.00;100485.38;4997638;28;20500;-70
2022/09/10 07:37:18;;;;;;;3.25;1.88;;;;;;;18.79;100.00;100486.81;5032412;28;20124;-69
2022/09/10 07:39:44;;;;;;;3.78;1.75;;;;;;;18.82;100.00;100485.97;5016507;28;20017;-70
2022/09/10 07:42:11;;;;;;;2.38;1.67;;;;;;;18.58;100.00;100478.97;5026515;28;20039;-70
2022/09/10 07:44:36;;;;;;;2.22;1.55;;;;;;;18.84;100.00;100487.09;5017266;28;20029;-70
2022/09/10 07:47:02;;;;;;;5.75;1.80;;;;;;;18.98;99.63;100497.03;5015972;28;20040;-70
2022/09/10 07:49:29;;;;;;;4.75;1.63;;;;;;;19.02;100.00;100491.50;5029594;28;20028;-70
2022/09/10 07:51:54;;;;;;;4.22;2.13;;;;;;;19.09;100.00;100505.81;5008222;28;20224;-70
2022/09/10 07:54:21;;;;;;;2.83;1.67;;;;;;;19.19;100.00;100501.34;5032762;28;20120;-70
2022/09/10 07:56:51;;;;;;;;;;;;;;;19.23;100.00;100494.63;5026069;28;20033;-69
2022/09/10 07:59:17;;;;;;;2.17;1.67;;;;;;;19.30;100.00;100499.22;5024059;28;19948;-69
2022/09/10 08:01:46;;;;;;;3.47;2.15;;;;;;;19.30;99.56;100501.94;5018672;28;20504;-70
2022/09/10 08:04:15;;;;;;;4.47;2.38;;;;;;;19.32;99.54;100502.28;5015366;28;20190;-70
2022/09/10 08:06:40;;;;;;;3.78;2.10;;;;;;;19.36;99.91;100503.78;5028826;28;20063;-70
2022/09/10 08:09:06;;;;;;;3.17;1.70;;;;;;;19.40;99.94;100511.91;5032267;28;20036;-70
2022/09/10 08:11:33;;;;;;;3.25;2.17;;;;;;;19.41;99.96;100513.47;5031721;28;20058;-70
2022/09/10 08:14:00;;;;;;;4.28;2.08;;;;;;;19.41;99.85;100508.00;5020309;28;20021;-70
2022/09/10 08:16:27;;;;;;;2.38;1.77;;;;;;;19.26;99.02;100512.91;5029656;28;20040;-70
2022/09/10 08:18:56;;;;;;;3.72;1.98;;;;;;;19.35;99.56;100512.41;5031938;28;20559;-70
2022/09/10 08:21:24;;;;;;;5.20;1.88;;;;;;;19.40;99.79;100520.13;5030730;28;20021;-70
2022/09/10 08:23:53;;;;;;;3.05;1.85;;;;;;;19.10;99.15;100523.75;5008875;28;20036;-70
2022/09/10 08:26:22;;;;;;;3.25;2.05;;;;;;;19.12;99.85;100531.50;5026693;28;20033;-70
2022/09/10 08:28:54;;;;;;;5.90;2.08;;;;;;;19.18;100.00;100536.06;5036402;28;20021;-70
2022/09/10 08:31:21;;;;;;;3.60;2.33;;;;;;;19.18;99.64;100532.59;5027339;28;20045;-70
2022/09/10 08:33:55;;;;;;;4.97;2.30;;;;;;;19.30;99.63;100543.66;5034473;28;20040;-70
2022/09/10 08:36:23;;;;;;;5.25;2.78;;;;;;;19.35;98.13;100540.50;5037681;28;20021;-70
2022/09/10 08:38:50;;;;;;;3.45;1.95;;;;;;;19.23;99.57;100546.53;5025636;28;20071;-70
2022/09/10 08:41:22;;;;;;;3.42;1.92;;;;;;;19.34;99.99;100546.38;5021754;28;20039;-70
2022/09/10 08:43:55;;;;;;;2.80;2.03;;;;;;;19.45;99.17;100549.69;5011112;28;20056;-69
2022/09/10 08:46:28;;;;;;;4.38;2.55;;;;;;;19.33;98.11;100550.28;5018685;28;20606;-69
2022/09/10 08:49:07;;;;;;;9.70;2.10;;;;;;;19.33;98.92;100551.06;5035873;28;20025;-69
2022/09/10 08:51:47;;;;;;;4.07;2.30;;;;;;;19.40;98.73;100558.34;5020681;28;20025;-69
2022/09/10 08:54:21;;;;;;;4.35;2.55;;;;;;;19.38;98.71;100542.38;5031573;28;20033;-69
2022/09/10 08:56:47;;;;;;;4.05;2.72;;;;;;;19.39;99.41;100556.84;5042345;28;20667;-68
2022/09/10 08:59:24;;;;;;;4.15;2.60;;;;;;;19.41;99.81;100555.22;5030899;28;20021;-69
2022/09/10 09:01:55;;;;;;;3.58;2.10;;;;;;;19.36;99.76;100552.19;5027110;28;20115;-68
2022/09/10 09:04:28;;;;;;;4.07;2.60;;;;;;;19.57;99.71;100563.50;5026946;28;20439;-69
2022/09/10 09:07:02;;;;;;;4.00;2.55;;;;;;;19.73;99.78;100560.88;5046535;28;20040;-69
2022/09/10 09:09:29;;;;;;;5.28;2.90;;;;;;;19.88;99.53;100561.38;5051603;28;20108;-68
2022/09/10 09:12:14;;;;;;;5.38;2.67;;;;;;;20.01;98.79;100565.03;5022310;28;20128;-69
2022/09/10 09:15:24;;;;;;;4.18;2.45;;;;;;;20.09;98.06;100563.69;5012306;28;20037;-69
2022/09/10 09:18:07;;;;;;;5.15;3.15;;;;;;;20.12;97.20;100560.13;5037956;28;20048;-69
2022/09/10 09:20:43;;;;;;;5.35;2.67;;;;;;;20.28;96.63;100573.91;5053898;22;20016;-66
2022/09/10 09:23:20;;;;;;;6.18;2.95;;;;;;;20.23;96.72;100568.13;5026093;28;20037;-66
2022/09/10 09:25:55;;;;;;;5.10;2.40;;;;;;;20.36;96.57;100569.06;5015605;28;20052;-66
2022/09/10 09:28:40;;;;;;;3.72;2.45;;;;;;;20.43;96.97;100566.94;5042758;28;20561;-66
2022/09/10 09:31:25;;;;;;;5.93;2.92;;;;;;;20.54;97.28;100567.47;5032490;28;20068;-66
2022/09/10 09:34:00;;;;;;;5.07;2.38;;;;;;;20.57;97.19;100571.31;5025343;28;20037;-66
2022/09/10 09:36:36;;;;;;;4.43;2.80;;;;;;;20.65;96.31;100561.78;5043384;28;20036;-67
2022/09/10 09:39:15;;;;;;;5.82;3.17;;;;;;;20.75;96.31;100566.22;5045542;28;20112;-66
2022/09/10 09:42:04;;;;;;;4.57;3.00;;;;;;;20.84;94.25;100574.63;5034918;28;20033;-67
2022/09/10 09:44:38;;;;;;;4.93;3.13;;;;;;;20.71;92.80;100568.28;5022705;28;20036;-66
2022/09/10 09:47:04;;;;;;;5.78;3.28;;;;;;;20.71;95.02;100564.78;5049945;28;20045;-66
2022/09/10 09:49:30;;;;;;;6.75;3.10;;;;;;;20.84;95.36;100568.38;5033724;28;20070;-67
2022/09/10 09:51:57;;;;;;;8.35;3.13;;;;;;;21.00;95.30;100562.91;5015893;28;20077;-66
2022/09/10 09:54:27;;;;;;;8.57;2.95;;;;;;;21.13;95.02;100566.53;5037012;28;20516;-67
2022/09/10 09:56:57;;;;;;;5.38;3.33;;;;;;;21.11;93.51;100566.19;5048165;28;20036;-67
2022/09/10 09:59:33;;;;;;;7.50;3.50;;;;;;;20.92;91.70;100561.53;5048859;28;20104;-66
2022/09/10 10:02:12;;;;;;;7.85;3.88;;;;;;;20.97;91.98;100567.28;5050103;28;20037;-67
2022/09/10 10:04:40;;;;;;;6.32;3.35;;;;;;;21.05;91.30;100560.47;5049479;28;20605;-67
2022/09/10 10:07:05;;;;;;;6.25;3.67;;;;;;;21.13;89.32;100567.31;5056446;28;20095;-67
2022/09/10 10:09:33;;;;;;;6.57;3.17;;;;;;;21.27;89.92;100566.19;5034087;28;20029;-67
2022/09/10 10:12:04;;;;;;;6.80;3.35;;;;;;;21.46;90.07;100566.09;5051377;28;20037;-67
2022/09/10 10:14:29;;;;;;;6.15;3.22;;;;;;;21.52;90.68;100566.34;5044152;28;20108;-67
2022/09/10 10:16:56;;;;;;;5.65;3.60;;;;;;;21.61;90.22;100569.22;5044521;28;20120;-66
2022/09/10 10:19:33;;;;;;;6.60;3.30;;;;;;;21.41;87.74;100568.56;5052340;28;20385;-66
2022/09/10 10:22:13;;;;;;;5.15;2.88;;;;;;;21.48;88.54;100571.13;5033146;28;20215;-66
2022/09/10 10:24:46;;;;;;;6.72;3.88;;;;;;;21.59;88.41;100568.88;5047829;28;20037;-67
2022/09/10 10:27:40;;;;;;;6.15;3.47;;;;;;;21.51;87.58;100571.03;5050710;28;20037;-66
2022/09/10 10:30:15;;;;;;;5.15;3.10;;;;;;;21.51;88.12;100571.03;5047976;28;20117;-67
2022/09/10 10:32:40;;;;;;;6.43;3.53;;;;;;;21.62;89.00;100572.75;5049641;28;20934;-67
2022/09/10 10:35:26;;;;;;;7.30;3.53;;;;;;;21.61;88.75;100568.44;5024502;28;20095;-66
2022/09/10 10:37:59;;;;;;;8.38;3.35;;;;;;;21.51;88.85;100570.25;5034448;28;20105;-67
2022/09/10 10:40:44;;;;;;;6.43;3.47;;;;;;;21.55;89.25;100573.69;5046095;28;20033;-67
2022/09/10 10:43:15;;;;;;;6.60;3.45;;;;;;;21.32;86.98;100571.16;5028038;28;20045;-66
2022/09/10 10:45:54;;;;;;;7.32;3.50;;;;;;;21.27;87.15;100564.19;5004099;28;20037;-66
2022/09/10 10:48:29;;;;;;;5.35;3.22;;;;;;;21.39;87.83;100569.00;5045583;28;20017;-67
2022/09/10 10:51:06;;;;;;;5.55;3.00;;;;;;;21.50;89.16;100566.75;5050165;28;20039;-67
2022/09/10 10:53:39;;;;;;;6.95;3.30;;;;;;;21.65;89.43;100569.13;5040267;28;20048;-66
2022/09/10 10:56:28;;;;;;;4.97;3.05;;;;;;;21.68;89.78;100568.28;5049591;28;20477;-66
2022/09/10 10:59:00;;;;;;;5.20;2.78;;;;;;;21.73;89.08;100567.75;5049614;28;20112;-66
2022/09/10 11:01:28;;;;;;;6.00;2.80;;;;;;;21.76;88.80;100567.63;5046136;28;20045;-66
2022/09/10 11:04:12;;;;;;;4.35;2.75;;;;;;;21.79;89.10;100560.53;5037876;28;20488;-66
2022/09/10 11:06:43;;;;;;;6.38;3.30;;;;;;;21.78;87.60;100558.97;5053391;28;20037;-67
2022/09/10 11:09:25;;;;;;;5.53;3.08;;;;;;;21.84;86.59;100570.97;5032737;28;20033;-67
2022/09/10 11:11:54;;;;;;;7.22;3.05;;;;;;;21.84;86.90;100565.50;5066546;28;20029;-66
2022/09/10 11:14:19;;;;;;;5.20;3.03;;;;;;;21.98;86.62;100565.91;5033586;28;20068;-66
2022/09/10 11:17:01;;;;;;;4.13;2.47;;;;;;;22.04;87.13;100563.38;5045948;28;20118;-66
2022/09/10 11:19:34;;;;;;;6.05;2.95;;;;;;;22.10;87.40;100556.16;5042161;28;20033;-66
2022/09/10 11:22:12;;;;;;;5.10;2.40;;;;;;;22.15;87.64;100553.66;5039393;28;20102;-67
2022/09/10 11:24:56;;;;;;;5.72;2.40;;;;;;;22.29;87.20;100555.97;5047592;28;20051;-66
2022/09/10 11:27:29;;;;;;;4.43;2.10;;;;;;;22.39;87.68;100551.38;5041416;28;20059;-66
2022/09/10 11:30:02;;;;;;;3.53;2.20;;;;;;;22.57;86.12;100559.13;5030293;28;20029;-66
2022/09/10 11:32:57;;;;;;;3.45;2.70;;;;;;;22.73;85.61;100557.03;5047420;28;20037;-66
2022/09/10 11:35:30;;;;;;;2.83;2.17;;;;;;;22.77;80.16;100554.94;5025926;28;20068;-67